Terminal Aerodrome Forecast
Issued by NWS Sioux Falls, SD

Home | Current Version | Previous Version | Graphics & Text | Print | Product List | Glossary On
Versions: 1 2 3 4 5 6 7 8 9 10 11 12
936
FTUS43 KFSD 061120
TAFFSD
TAF
KFSD 061120Z 0612/0712 20007KT P6SM VCSH FEW120 WS020/23035KT
     FM061330 22012KT P6SM FEW250
     FM061700 22015G23KT P6SM FEW200
     FM070000 VRB05KT P6SM SCT120 SCT250
     FM070300 02010KT P6SM BKN200=

USA.gov is the U.S. government's official web portal to all federal, state and local government web resources and services.